createdAt,value
2022-08-22T00:00:26.644Z,2.5
2022-08-22T00:02:28.516Z,1.9
2022-08-22T00:02:55.766Z,5.4
2022-08-22T00:02:56.361Z,2.5
2022-08-22T00:03:16.332Z,2.6
2022-08-22T00:06:35.435Z,2.4
2022-08-22T00:08:37.281Z,2
2022-08-22T00:16:44.637Z,1.7
2022-08-22T00:22:54.996Z,2.6
2022-08-22T00:24:56.838Z,1.6
2022-08-22T00:26:58.690Z,1.8
2022-08-22T00:29:00.543Z,2
2022-08-22T00:31:02.380Z,1.3
2022-08-22T00:35:09.348Z,2
2022-08-22T00:37:11.184Z,1.9
2022-08-22T00:39:13.038Z,2.1
2022-08-22T00:40:15.648Z,2.3
2022-08-22T00:42:31.718Z,2.5
2022-08-22T00:44:19.277Z,2.5
2022-08-22T00:46:21.146Z,2.6
2022-08-22T00:48:26.233Z,3.6
2022-08-22T00:50:28.107Z,2.3
2022-08-22T00:56:33.641Z,2.5
2022-08-22T00:58:35.499Z,2.8
2022-08-22T01:00:37.343Z,1.7
2022-08-22T01:02:42.447Z,2.2
2022-08-22T01:04:44.286Z,2.1
2022-08-22T01:06:46.141Z,1.8
2022-08-22T01:08:47.984Z,2.2
2022-08-22T01:10:49.833Z,1.9
2022-08-22T01:12:51.687Z,2.5
2022-08-22T01:14:53.521Z,2.4
2022-08-22T01:16:58.604Z,1.7
2022-08-22T01:19:00.459Z,2.1
2022-08-22T01:21:02.292Z,1.2
2022-08-22T01:23:04.159Z,2.2
2022-08-22T01:25:05.989Z,2.1
2022-08-22T01:27:07.839Z,2.3
2022-08-22T01:29:09.694Z,2.5
2022-08-22T01:31:14.839Z,3.3
2022-08-22T01:33:16.688Z,2.4
2022-08-22T01:35:18.533Z,2.7
2022-08-22T01:36:21.079Z,2.4
2022-08-22T01:42:26.625Z,1.7
2022-08-22T01:44:31.718Z,1.6
2022-08-22T01:46:33.542Z,2.3
2022-08-22T01:52:39.098Z,1.3
2022-08-22T01:54:40.936Z,1.8
2022-08-22T01:56:42.791Z,2.4
2022-08-22T01:58:47.896Z,2.3
2022-08-22T02:00:49.785Z,2
2022-08-22T02:04:53.433Z,2.5
2022-08-22T02:08:57.110Z,2.7
2022-08-22T02:10:58.970Z,2.4
2022-08-22T02:13:04.107Z,2.7
2022-08-22T02:15:05.917Z,2.6
2022-08-22T02:17:07.751Z,2.4
2022-08-22T02:19:09.621Z,2.5
2022-08-22T02:21:11.462Z,3.3
2022-08-22T02:23:13.301Z,4.1
2022-08-22T02:31:23.954Z,1.8
2022-08-22T02:32:26.465Z,2.7
2022-08-22T02:34:28.313Z,1.7
2022-08-22T02:36:30.152Z,2.6
2022-08-22T02:38:31.993Z,2.3
2022-08-22T02:40:37.090Z,2.4
2022-08-22T02:42:40.020Z,3.1
2022-08-22T02:44:40.764Z,2.3
2022-08-22T02:48:44.465Z,2
2022-08-22T02:50:46.306Z,2.5
2022-08-22T02:52:48.139Z,2.5
2022-08-22T02:54:53.241Z,2
2022-08-22T02:56:55.083Z,2.4
2022-08-22T02:58:59.237Z,1.9
2022-08-22T03:00:58.801Z,2
2022-08-22T03:03:00.616Z,2.9
2022-08-22T03:05:02.452Z,3.4
2022-08-22T03:09:09.369Z,2.4
2022-08-22T03:11:11.216Z,2.6
2022-08-22T03:13:13.062Z,2.9
2022-08-22T03:15:14.890Z,2.6
2022-08-22T03:17:16.740Z,2.6
2022-08-22T03:19:19.073Z,3
2022-08-22T03:21:20.451Z,2.4
2022-08-22T03:23:25.531Z,3.7
2022-08-22T03:25:27.371Z,3
2022-08-22T03:27:32.757Z,2.9
2022-08-22T03:29:51.951Z,3.2
2022-08-22T03:33:55.644Z,2.7
2022-08-22T03:36:00.790Z,2.9
2022-08-22T03:38:02.598Z,3.5
2022-08-22T03:40:04.515Z,3.1
2022-08-22T03:42:06.283Z,2.4
2022-08-22T03:44:08.116Z,3.4
2022-08-22T03:46:09.977Z,3
2022-08-22T03:50:16.917Z,3.2
2022-08-22T03:52:18.760Z,3.3
2022-08-22T04:00:26.202Z,3
2022-08-22T04:02:43.501Z,3.2
2022-08-22T04:06:34.920Z,3.7
2022-08-22T04:08:36.780Z,4.1
2022-08-22T04:10:38.620Z,3.1
2022-08-22T04:12:40.465Z,4
2022-08-22T04:16:44.154Z,3.7
2022-08-22T04:18:49.287Z,3.9
2022-08-22T04:20:51.094Z,4.3
2022-08-22T04:22:52.953Z,3.7
2022-08-22T04:23:55.510Z,3.7
2022-08-22T04:25:57.633Z,4
2022-08-22T04:27:59.469Z,4.8
2022-08-22T04:30:01.041Z,3.6
2022-08-22T04:32:06.152Z,3.5
2022-08-22T04:34:07.996Z,4
2022-08-22T04:36:09.851Z,3.4
2022-08-22T04:38:11.694Z,4.1
2022-08-22T04:40:13.617Z,3.2
2022-08-22T04:44:17.241Z,3.9
2022-08-22T04:46:22.335Z,3.3
2022-08-22T04:48:24.198Z,2.9
2022-08-22T04:50:26.029Z,4
2022-08-22T04:52:29.602Z,2.9
2022-08-22T04:54:29.720Z,3.5
2022-08-22T04:56:31.570Z,3.2
2022-08-22T04:58:33.435Z,3.9
2022-08-22T05:00:38.533Z,4.4
2022-08-22T05:10:47.746Z,4.3
2022-08-22T05:12:49.601Z,3.9
2022-08-22T05:16:56.555Z,4.3
2022-08-22T05:18:58.395Z,4.3
2022-08-22T05:20:00.944Z,5.6
2022-08-22T05:22:02.820Z,5.4
2022-08-22T05:24:04.651Z,3.8
2022-08-22T05:26:06.509Z,4.3
2022-08-22T05:28:11.606Z,4.5
2022-08-22T05:30:13.463Z,3.6
2022-08-22T05:32:15.289Z,4.3
2022-08-22T05:34:17.141Z,4.2
2022-08-22T05:36:19.005Z,3.9
2022-08-22T05:38:20.835Z,4.1
2022-08-22T05:40:22.732Z,4.5
2022-08-22T05:42:27.790Z,4.5
2022-08-22T05:44:29.637Z,4.1
2022-08-22T05:46:31.478Z,5.7
2022-08-22T05:48:33.335Z,4.7
2022-08-22T05:50:35.168Z,4.9
2022-08-22T05:52:37.038Z,5.3
2022-08-22T05:54:38.912Z,4.4
2022-08-22T05:56:43.986Z,5.4
2022-08-22T05:58:45.853Z,4.8
2022-08-22T06:00:47.681Z,4.6
2022-08-22T06:02:49.564Z,4.1
2022-08-22T06:16:07.999Z,5.3
2022-08-22T06:18:09.808Z,4.2
2022-08-22T06:20:11.640Z,8.5
2022-08-22T06:24:18.599Z,8.7
2022-08-22T06:26:21.474Z,3.8
2022-08-22T06:28:22.288Z,4.8
2022-08-22T06:30:24.142Z,5.3
2022-08-22T06:32:44.532Z,4.5
2022-08-22T06:34:27.810Z,5.2
2022-08-22T06:36:29.691Z,4.3
2022-08-22T06:40:36.612Z,4.8
2022-08-22T06:42:38.471Z,4.1
2022-08-22T06:46:42.139Z,7.3
2022-08-22T06:48:44.014Z,5.7
2022-08-22T06:50:45.817Z,5
2022-08-22T06:52:50.941Z,4.1
2022-08-22T06:54:52.782Z,4.4
2022-08-22T06:56:54.622Z,4.3
2022-08-22T06:58:56.466Z,4.7
2022-08-22T07:01:05.696Z,6
2022-08-22T07:03:00.146Z,4.1
2022-08-22T07:05:01.967Z,4.2
2022-08-22T07:07:07.074Z,4
2022-08-22T07:09:08.932Z,3.7
2022-08-22T07:11:10.758Z,3.6
2022-08-22T07:13:39.440Z,3.7
2022-08-22T07:15:41.272Z,3.9
2022-08-22T07:17:43.086Z,3.9
2022-08-22T07:19:48.213Z,3.7
2022-08-22T07:21:50.005Z,4
2022-08-22T07:23:51.837Z,6.7
2022-08-22T07:29:57.293Z,4.1
2022-08-22T07:34:04.200Z,3.9
2022-08-22T07:36:06.025Z,3.8
2022-08-22T07:38:07.852Z,3.7
2022-08-22T07:40:09.691Z,3
2022-08-22T07:42:11.496Z,2.9
2022-08-22T07:48:25.851Z,3.6
2022-08-22T07:50:22.004Z,3.1
2022-08-22T07:52:23.833Z,3.1
2022-08-22T07:54:27.236Z,3.4
2022-08-22T07:56:27.451Z,4.2
2022-08-22T07:58:29.254Z,4.8
2022-08-22T08:00:31.069Z,3
2022-08-22T08:02:35.942Z,3.1
2022-08-22T08:04:40.434Z,4.2
2022-08-22T08:06:39.486Z,2.7
2022-08-22T08:07:42.020Z,2.6
2022-08-22T08:09:43.703Z,3.2
2022-08-22T08:13:47.086Z,2.8
2022-08-22T08:15:51.971Z,5
2022-08-22T08:17:53.690Z,2.5
2022-08-22T08:21:56.989Z,2.4
2022-08-22T08:23:58.647Z,3.1
2022-08-22T08:26:00.316Z,2.9
2022-08-22T08:28:02.100Z,1.9
2022-08-22T08:30:06.823Z,2.6
2022-08-22T08:32:08.477Z,2
2022-08-22T08:34:10.147Z,1.8
2022-08-22T08:36:11.789Z,1.8
2022-08-22T08:38:13.433Z,2
2022-08-22T08:40:15.166Z,1.6
2022-08-22T08:42:16.680Z,1.9
2022-08-22T08:44:21.521Z,1.7
2022-08-22T08:46:23.144Z,1.7
2022-08-22T08:48:24.752Z,2.6
2022-08-22T08:50:26.374Z,2.8
2022-08-22T08:52:28.005Z,2.1
2022-08-22T08:54:29.640Z,1.9
2022-08-22T08:56:31.239Z,2.9
2022-08-22T08:58:36.043Z,2.1
2022-08-22T09:00:37.648Z,1.7
2022-08-22T09:02:42.459Z,2.1
2022-08-22T09:03:41.706Z,1.7
2022-08-22T09:05:43.241Z,2.7
2022-08-22T09:07:44.853Z,1.8
2022-08-22T09:09:46.447Z,1.6
2022-08-22T09:11:51.263Z,1.8
2022-08-22T09:13:52.848Z,2
2022-08-22T09:15:58.569Z,1.5
2022-08-22T09:17:56.160Z,1.4
2022-08-22T09:19:57.636Z,2.7
2022-08-22T09:21:59.247Z,1.9
2022-08-22T09:24:00.854Z,1.8
2022-08-22T09:26:05.658Z,1.4
2022-08-22T09:28:07.448Z,1.3
2022-08-22T09:30:08.858Z,1.3
2022-08-22T09:32:13.165Z,2.1
2022-08-22T09:34:12.062Z,2.1
2022-08-22T09:36:13.654Z,1.6
2022-08-22T09:38:15.266Z,1.6
2022-08-22T09:42:21.663Z,2.7
2022-08-22T09:44:23.290Z,2
2022-08-22T09:46:32.009Z,1.7
2022-08-22T09:48:26.686Z,1.8
2022-08-22T09:50:29.535Z,1.5
2022-08-22T09:54:34.539Z,1.7
2022-08-22T09:56:36.155Z,1.9
2022-08-22T09:58:41.632Z,1.3
2022-08-22T10:01:42.354Z,1.5
2022-08-22T10:03:43.431Z,1.3
2022-08-22T10:05:45.114Z,2.4
2022-08-22T10:07:51.492Z,2.4
2022-08-22T10:09:54.842Z,2.6
2022-08-22T10:11:53.094Z,1.9
2022-08-22T10:13:57.410Z,1
2022-08-22T10:15:56.323Z,2.1
2022-08-22T10:17:57.943Z,1.9
2022-08-22T10:19:59.537Z,2.5
2022-08-22T10:22:04.479Z,1.8
2022-08-22T10:24:07.196Z,2.7
2022-08-22T10:26:07.589Z,1.4
2022-08-22T10:28:10.643Z,1.9
2022-08-22T10:30:10.752Z,1.6
2022-08-22T10:32:14.490Z,2.9
2022-08-22T10:34:13.910Z,3.2
2022-08-22T10:36:18.700Z,2.2
2022-08-22T10:38:20.246Z,1.5
2022-08-22T10:40:21.940Z,1.9
2022-08-22T10:42:23.420Z,2.2
2022-08-22T10:44:24.952Z,1.8
2022-08-22T10:46:26.497Z,2.6
2022-08-22T10:48:28.063Z,1.1
2022-08-22T10:50:32.813Z,3
2022-08-22T10:52:34.369Z,3.3
2022-08-22T10:54:35.929Z,1.9
2022-08-22T10:57:04.218Z,1.6
2022-08-22T10:59:05.772Z,1.8
2022-08-22T11:01:37.208Z,1.4
2022-08-22T11:03:15.846Z,1.7
2022-08-22T11:05:13.609Z,1.8
2022-08-22T11:07:15.162Z,2.3
2022-08-22T11:09:16.726Z,2.2
2022-08-22T11:11:18.288Z,1.8
2022-08-22T11:15:34.645Z,1.4
2022-08-22T11:25:38.393Z,1.3
2022-08-22T11:27:38.038Z,1.8
2022-08-22T11:31:47.247Z,1.8
2022-08-22T11:33:46.411Z,2
2022-08-22T11:35:43.489Z,2.4
2022-08-22T11:37:45.010Z,1.6
2022-08-22T11:39:47.177Z,1.7
2022-08-22T11:41:52.345Z,1.5
2022-08-22T11:43:49.634Z,2.1
2022-08-22T11:45:54.384Z,1.1
2022-08-22T11:47:55.937Z,1.2
2022-08-22T11:49:57.480Z,1.8
2022-08-22T11:55:02.954Z,1.4
2022-08-22T11:57:04.508Z,1.1
2022-08-22T11:59:09.313Z,2.3
2022-08-22T12:01:17.467Z,2.6
2022-08-22T12:03:13.921Z,1.6
2022-08-22T12:05:20.031Z,1
2022-08-22T12:09:18.593Z,1.3
2022-08-22T12:11:20.167Z,1.2
2022-08-22T12:13:34.932Z,1.2
2022-08-22T12:15:26.524Z,1.2
2022-08-22T12:17:50.811Z,1.3
2022-08-22T12:25:34.505Z,2.4
2022-08-22T12:27:39.243Z,2.2
2022-08-22T12:29:44.866Z,2.8
2022-08-22T12:31:42.444Z,1.4
2022-08-22T12:33:44.046Z,1.1
2022-08-22T12:35:45.635Z,1.3
2022-08-22T12:37:52.829Z,1.6
2022-08-22T12:39:48.849Z,1.7
2022-08-22T12:41:53.647Z,1.7
2022-08-22T12:43:55.248Z,1.8
2022-08-22T12:45:56.850Z,1.2
2022-08-22T12:46:59.234Z,1.2
2022-08-22T12:49:00.839Z,2
2022-08-22T12:55:08.856Z,1
2022-08-22T12:57:24.057Z,1.3
2022-08-22T12:59:12.082Z,1.8
2022-08-22T13:01:13.757Z,1.4
2022-08-22T13:03:15.276Z,2.2
2022-08-22T13:05:19.954Z,2.2
2022-08-22T13:07:18.474Z,1.1
2022-08-22T13:09:28.521Z,1.5
2022-08-22T13:11:24.963Z,1.5
2022-08-22T13:13:31.437Z,1.3
2022-08-22T13:15:28.036Z,1.5
2022-08-22T13:17:29.640Z,1.9
2022-08-22T13:21:36.050Z,1
2022-08-22T13:23:39.612Z,1.4
2022-08-22T13:25:39.226Z,1.9
2022-08-22T13:27:40.911Z,1
2022-08-22T13:29:42.853Z,1.7
2022-08-22T13:31:44.018Z,1.6
2022-08-22T13:33:45.603Z,1.4
2022-08-22T13:35:51.941Z,2.6
2022-08-22T13:37:51.975Z,2.3
2022-08-22T13:39:53.648Z,1.6
2022-08-22T13:41:55.180Z,1.3
2022-08-22T13:42:57.568Z,1.7
2022-08-22T13:44:59.167Z,2
2022-08-22T13:47:13.905Z,1.3
2022-08-22T13:49:02.356Z,0.9
2022-08-22T13:51:08.158Z,1
2022-08-22T13:53:08.756Z,1.3
2022-08-22T13:55:13.576Z,1.6
2022-08-22T13:59:25.309Z,1.3
2022-08-22T14:03:16.736Z,1.4
2022-08-22T14:05:21.541Z,1.7
2022-08-22T14:07:23.977Z,2.3
2022-08-22T14:09:31.504Z,1.5
2022-08-22T14:11:26.337Z,1.5
2022-08-22T14:13:27.951Z,1.6
2022-08-22T14:15:32.249Z,1.8
2022-08-22T14:17:31.176Z,1.4
2022-08-22T14:19:52.975Z,1.8
2022-08-22T14:21:40.495Z,1.9
2022-08-22T14:23:39.189Z,1.5
2022-08-22T14:27:42.427Z,1.8
2022-08-22T14:29:44.021Z,1.5
2022-08-22T14:31:45.640Z,1.9
2022-08-22T14:33:50.465Z,2
2022-08-22T14:35:52.851Z,1.8
2022-08-22T14:37:53.693Z,1.6
2022-08-22T14:40:22.105Z,1.6
2022-08-22T14:42:23.654Z,2.7
2022-08-22T14:44:25.268Z,1.6
2022-08-22T14:52:34.932Z,2.1
2022-08-22T14:54:36.557Z,1.5
2022-08-22T14:56:38.181Z,1
2022-08-22T15:00:44.861Z,1.6
2022-08-22T15:02:46.262Z,5
2022-08-22T15:04:47.940Z,2
2022-08-22T15:06:49.662Z,2.2
2022-08-22T15:08:51.110Z,1.8
2022-08-22T15:10:52.735Z,3.3
2022-08-22T15:12:54.354Z,1
2022-08-22T15:14:59.171Z,1.7
2022-08-22T15:17:00.814Z,1.4
2022-08-22T15:19:02.429Z,1.4
2022-08-22T15:21:04.068Z,1.9
2022-08-22T15:23:10.213Z,1.6
2022-08-22T15:25:08.500Z,1.6
2022-08-22T15:27:08.936Z,1.5
2022-08-22T15:29:13.765Z,1.3
2022-08-22T15:31:15.386Z,2
2022-08-22T15:33:17.009Z,1.4
2022-08-22T15:34:19.415Z,1.1
2022-08-22T15:36:21.049Z,1.2
2022-08-22T15:38:22.658Z,0.5
2022-08-22T15:40:24.381Z,1
2022-08-22T15:42:29.124Z,1.2
2022-08-22T15:44:32.787Z,1.4
2022-08-22T15:46:32.350Z,1.3
2022-08-22T15:48:33.969Z,1.3
2022-08-22T15:50:35.587Z,2
2022-08-22T15:52:37.150Z,1.3
2022-08-22T15:54:42.652Z,1
2022-08-22T15:56:43.527Z,1.2
2022-08-22T15:58:48.127Z,1.6
2022-08-22T16:00:46.690Z,1.3
2022-08-22T16:02:48.259Z,0.8
2022-08-22T16:04:49.816Z,1.4
2022-08-22T16:06:51.621Z,2.1
2022-08-22T16:08:52.994Z,1.9
2022-08-22T16:10:57.796Z,1.5
2022-08-22T16:12:59.635Z,2.1
2022-08-22T16:15:00.967Z,2.7
2022-08-22T16:17:02.542Z,1.5
2022-08-22T16:19:04.135Z,1.5
2022-08-22T16:21:05.737Z,1.3
2022-08-22T16:23:07.787Z,2.5
2022-08-22T16:25:12.610Z,1.1
2022-08-22T16:27:14.204Z,1.3
2022-08-22T16:29:18.163Z,1.6
2022-08-22T16:30:18.204Z,1.3
2022-08-22T16:32:19.830Z,1.6
2022-08-22T16:34:21.426Z,1.6
2022-08-22T16:38:27.825Z,1.5
2022-08-22T16:40:29.551Z,1.6
2022-08-22T16:42:31.063Z,1.1
2022-08-22T16:46:36.418Z,1.3
2022-08-22T16:48:35.910Z,1
2022-08-22T16:52:42.362Z,1.2
2022-08-22T16:54:43.992Z,2.7
2022-08-22T16:56:45.610Z,1.4
2022-08-22T16:58:57.936Z,1.4
2022-08-22T17:00:49.870Z,1.6
2022-08-22T17:02:50.500Z,1.3
2022-08-22T17:08:58.613Z,2
2022-08-22T17:11:00.245Z,3.2
2022-08-22T17:13:01.894Z,1.5
2022-08-22T17:15:03.523Z,1.8
2022-08-22T17:17:05.161Z,2.2
2022-08-22T17:19:06.824Z,3.5
2022-08-22T17:21:11.668Z,2.7
2022-08-22T17:23:13.325Z,1.6
2022-08-22T17:25:14.975Z,1.2
2022-08-22T17:26:17.389Z,2.1
2022-08-22T17:28:19.036Z,0.9
2022-08-22T17:30:20.691Z,1.3
2022-08-22T17:32:22.331Z,1
2022-08-22T17:34:27.190Z,1.3
2022-08-22T17:36:28.824Z,1.1
2022-08-22T17:38:30.493Z,1.3
2022-08-22T17:40:32.274Z,2.9
2022-08-22T17:42:33.802Z,4.5
2022-08-22T17:46:37.122Z,1.1
2022-08-22T17:48:41.960Z,1.2
2022-08-22T17:50:43.624Z,1.3
2022-08-22T17:52:46.834Z,1.3
2022-08-22T17:54:48.450Z,1.8
2022-08-22T17:56:52.404Z,1.5
2022-08-22T17:58:51.791Z,1.2
2022-08-22T18:00:53.495Z,2.7
2022-08-22T18:02:58.482Z,2.3
2022-08-22T18:04:59.980Z,2.8
2022-08-22T18:07:01.647Z,2.9
2022-08-22T18:09:15.611Z,5.1
2022-08-22T18:11:08.135Z,2.6
2022-08-22T18:13:07.482Z,2
2022-08-22T18:15:08.286Z,2
2022-08-22T18:17:13.161Z,1.5
2022-08-22T18:19:14.814Z,3.5
2022-08-22T18:21:16.483Z,1.6
2022-08-22T18:23:44.910Z,1.8
2022-08-22T18:25:46.592Z,3.7
2022-08-22T18:27:48.290Z,4.1
2022-08-22T18:35:58.132Z,1.8
2022-08-22T18:37:59.808Z,2.6
2022-08-22T18:42:03.171Z,1.7
2022-08-22T18:44:08.060Z,2.4
2022-08-22T18:46:09.683Z,3.1
2022-08-22T18:48:11.380Z,3
2022-08-22T18:50:13.038Z,2.4
2022-08-22T18:52:14.722Z,1.8
2022-08-22T18:54:16.393Z,1.7
2022-08-22T18:56:18.078Z,2.2
2022-08-22T18:58:22.954Z,2.8
2022-08-22T19:00:24.634Z,1.9
2022-08-22T19:04:27.989Z,3.9
2022-08-22T19:06:29.669Z,2.9
2022-08-22T19:08:31.385Z,2.3
2022-08-22T19:10:33.042Z,2.4
2022-08-22T19:12:37.907Z,1.5
2022-08-22T19:14:39.588Z,2.6
2022-08-22T19:16:41.282Z,3
2022-08-22T19:23:49.115Z,3.8
2022-08-22T19:25:53.961Z,2.8
2022-08-22T19:34:00.879Z,2.3
2022-08-22T19:38:04.321Z,2.8
2022-08-22T19:40:09.372Z,1.9
2022-08-22T19:42:10.949Z,2.4
2022-08-22T19:44:12.605Z,3.4
2022-08-22T19:46:14.383Z,2.3
2022-08-22T19:48:16.184Z,2.4
2022-08-22T19:50:18.018Z,2.2
2022-08-22T19:52:19.593Z,3.8
2022-08-22T19:54:24.477Z,4.7
2022-08-22T19:56:26.278Z,6.6
2022-08-22T19:58:32.793Z,2.4
2022-08-22T20:00:29.893Z,2.9
2022-08-22T20:02:31.684Z,2.6
2022-08-22T20:06:44.005Z,2.3
2022-08-22T20:08:40.309Z,1.8
2022-08-22T20:10:42.113Z,2.8
2022-08-22T20:12:43.894Z,2.2
2022-08-22T20:15:50.856Z,2.8
2022-08-22T20:18:12.012Z,2.6
2022-08-22T20:20:18.440Z,3
2022-08-22T20:21:56.963Z,2.5
2022-08-22T20:23:58.788Z,2.4
2022-08-22T20:26:00.589Z,4.1
2022-08-22T20:30:04.249Z,3.4
2022-08-22T20:34:07.867Z,2.4
2022-08-22T20:36:27.938Z,3.3
2022-08-22T20:38:14.773Z,2.4
2022-08-22T20:42:18.429Z,1.9
2022-08-22T20:44:20.230Z,3.1
2022-08-22T20:46:22.246Z,2.7
2022-08-22T20:50:28.947Z,2.5
2022-08-22T20:52:30.772Z,2.4
2022-08-22T21:00:38.074Z,2.7
2022-08-22T21:02:39.894Z,2.1
2022-08-22T21:09:51.175Z,3.6
2022-08-22T21:11:53.006Z,3.1
2022-08-22T21:13:54.821Z,5.7
2022-08-22T21:15:56.728Z,2.5
2022-08-22T21:18:01.885Z,3.5
2022-08-22T21:20:03.581Z,3.2
2022-08-22T21:26:09.062Z,2.6
2022-08-22T21:28:10.903Z,3.2
2022-08-22T21:30:12.749Z,3.4
2022-08-22T21:32:17.820Z,3.2
2022-08-22T21:34:19.662Z,2.9
2022-08-22T21:36:21.488Z,2.7
2022-08-22T21:38:23.332Z,3.4
2022-08-22T21:44:28.811Z,3.1
2022-08-22T21:46:33.908Z,4.7
2022-08-22T21:48:35.757Z,4
2022-08-22T21:50:37.577Z,2.8
2022-08-22T21:52:39.409Z,4.7
2022-08-22T21:54:41.231Z,4.6
2022-08-22T21:58:44.897Z,3.8
2022-08-22T22:00:50.073Z,4.2
2022-08-22T22:07:22.420Z,6.1
2022-08-22T22:09:24.251Z,3.9
2022-08-22T22:11:26.096Z,3.3
2022-08-22T22:13:31.198Z,2.9
2022-08-22T22:15:33.032Z,3
2022-08-22T22:17:34.978Z,3.7
2022-08-22T22:21:38.546Z,3.1
2022-08-22T22:23:40.369Z,3.3
2022-08-22T22:33:52.868Z,3.5
2022-08-22T22:35:54.734Z,3.9
2022-08-22T22:37:56.666Z,3.5
2022-08-22T22:39:58.422Z,2.9
2022-08-22T22:42:03.467Z,3.4
2022-08-22T22:46:07.144Z,3
2022-08-22T22:48:08.998Z,3
2022-08-22T22:50:10.855Z,5.2
2022-08-22T22:54:14.525Z,3.1
2022-08-22T22:56:21.541Z,3.2
2022-08-22T22:58:21.476Z,3.5
2022-08-22T23:00:23.333Z,3.7
2022-08-22T23:11:38.342Z,3.6
2022-08-22T23:13:40.825Z,4.1
2022-08-22T23:21:47.562Z,3.6
2022-08-22T23:23:52.662Z,4.2
2022-08-22T23:25:54.502Z,3.5
2022-08-22T23:29:58.199Z,3.9
2022-08-22T23:32:00.031Z,4.8
2022-08-22T23:34:01.903Z,3.1
2022-08-22T23:36:03.748Z,5.6
2022-08-22T23:38:08.826Z,4.3
2022-08-22T23:40:10.826Z,3.9
2022-08-22T23:42:12.507Z,4
2022-08-22T23:44:15.942Z,4
2022-08-22T23:46:17.728Z,3.8
2022-08-22T23:48:19.600Z,4.5
2022-08-22T23:50:21.434Z,4.1
2022-08-22T23:52:26.545Z,3.6
2022-08-22T23:54:28.395Z,4.5
2022-08-22T23:56:30.223Z,2.9
2022-08-22T23:57:32.777Z,4.1
2022-08-22T23:59:34.808Z,5.1
